Time;durP1;ratioP1;P1;durP2;ratioP2;P2;SDS_P1;SDS_P2;PMS_P1;PMS_P2;Temp;Humidity;BMP_temperature;BMP_pressure;BME280_temperature;BME280_humidity;BME280_pressure;Samples;Min_cycle;Max_cycle;Signal;HPM_P1;HPM_P2
2022/10/16 00:01:18;;;;;;;7.45;5.00;;;;;;;16.37;58.30;100255.44;4469234;32;33523;-76
2022/10/16 00:03:46;;;;;;;8.38;4.80;;;;;;;16.56;57.33;100255.66;4455074;32;34244;-76
2022/10/16 00:06:32;;;;;;;8.05;4.72;;;;;;;16.47;57.54;100249.12;4469431;32;33988;-77
2022/10/16 00:09:00;;;;;;;8.73;4.93;;;;;;;16.46;57.16;100249.38;4468893;32;33626;-76
2022/10/16 00:11:30;;;;;;;7.40;4.80;;;;;;;16.57;56.76;100251.03;4469327;32;34215;-78
2022/10/16 00:13:59;;;;;;;7.12;4.87;;;;;;;16.25;57.77;100248.59;4469071;32;34991;-81
2022/10/16 00:16:28;;;;;;;9.10;5.20;;;;;;;16.50;57.30;100247.75;4468465;32;34197;-81
2022/10/16 00:18:55;;;;;;;8.05;4.87;;;;;;;16.68;56.55;100238.94;4468828;32;33329;-77
2022/10/16 00:21:26;;;;;;;9.35;5.00;;;;;;;16.01;58.14;100246.41;4468810;32;33644;-80
2022/10/16 00:24:12;;;;;;;8.20;4.78;;;;;;;16.02;58.21;100245.28;4457035;32;34882;-81
2022/10/16 00:26:39;;;;;;;8.93;4.85;;;;;;;16.08;58.03;100251.59;4468673;32;33438;-77
2022/10/16 00:29:08;;;;;;;8.25;4.90;;;;;;;15.97;58.47;100253.50;4468547;32;33677;-80
2022/10/16 00:31:36;;;;;;;6.87;4.95;;;;;;;15.75;58.83;100251.84;4468905;32;33985;-79
2022/10/16 00:34:03;;;;;;;8.07;4.90;;;;;;;15.84;58.50;100256.78;4468812;32;33842;-78
2022/10/16 00:36:31;;;;;;;6.90;4.43;;;;;;;15.85;58.63;100261.16;4468713;32;34686;-78
2022/10/16 00:39:00;;;;;;;8.77;5.55;;;;;;;15.67;59.12;100266.00;4468791;32;34387;-81
2022/10/16 00:41:29;;;;;;;8.25;5.18;;;;;;;15.65;59.15;100265.44;4454772;32;34553;-77
2022/10/16 00:43:59;;;;;;;7.03;4.82;;;;;;;15.20;60.46;100264.22;4468534;32;33985;-80
2022/10/16 00:46:40;;;;;;;8.10;4.97;;;;;;;15.59;59.21;100269.25;4467013;32;34194;-79
2022/10/16 00:49:13;;;;;;;9.50;4.80;;;;;;;16.18;57.26;100271.59;4469849;32;33448;-81
2022/10/16 00:51:43;;;;;;;5.70;4.10;;;;;;;15.68;58.78;100264.94;4470225;32;33957;-79
2022/10/16 00:54:21;;;;;;;7.25;4.90;;;;;;;15.45;59.30;100268.97;4470294;32;33915;-81
2022/10/16 00:56:50;;;;;;;9.13;5.12;;;;;;;15.48;59.29;100268.41;4469777;32;33970;-76
2022/10/16 00:59:25;;;;;;;8.90;4.53;;;;;;;15.72;58.23;100282.47;4469989;32;34186;-77
2022/10/16 01:01:53;;;;;;;6.87;4.80;;;;;;;15.81;58.15;100280.03;4470290;32;33933;-76
2022/10/16 01:04:22;;;;;;;7.78;4.60;;;;;;;15.73;59.00;100283.31;4484201;31;33999;-81
2022/10/16 01:07:04;;;;;;;7.62;4.97;;;;;;;15.96;58.36;100279.22;4461768;32;34879;-78
2022/10/16 01:09:52;;;;;;;7.57;5.37;;;;;;;15.79;58.87;100285.78;4468537;32;33645;-81
2022/10/16 01:12:34;;;;;;;7.85;5.20;;;;;;;15.57;59.71;100290.59;4468423;32;34081;-78
2022/10/16 01:15:10;;;;;;;8.50;5.10;;;;;;;15.37;60.54;100294.91;4461877;32;34219;-79
2022/10/16 01:17:43;;;;;;;5.65;4.60;;;;;;;15.65;59.71;100297.47;4469486;32;33999;-82
2022/10/16 01:20:21;;;;;;;8.27;5.20;;;;;;;15.46;60.11;100295.19;4483105;32;34305;-81
2022/10/16 01:23:08;;;;;;;6.90;4.70;;;;;;;15.59;59.74;100292.00;4454618;32;34726;-77
2022/10/16 01:25:52;;;;;;;7.75;4.70;;;;;;;15.47;59.89;100296.88;4467886;32;34263;-79
2022/10/16 01:28:22;;;;;;;7.25;4.68;;;;;;;15.45;60.21;100306.44;4468250;32;33725;-76
2022/10/16 01:30:52;;;;;;;8.48;5.37;;;;;;;15.05;61.04;100299.66;4454029;32;33253;-78
2022/10/16 01:33:23;;;;;;;8.07;5.47;;;;;;;14.75;62.04;100296.50;4453950;32;34055;-77
2022/10/16 01:36:03;;;;;;;7.25;5.07;;;;;;;14.95;61.48;100303.19;4467943;32;35007;-80
2022/10/16 01:38:35;;;;;;;7.22;5.15;;;;;;;15.21;60.88;100300.59;4453639;32;34616;-77
2022/10/16 01:41:10;;;;;;;7.25;5.00;;;;;;;15.20;60.85;100305.22;4454126;32;34318;-78
2022/10/16 01:43:41;;;;;;;8.57;5.40;;;;;;;15.20;60.78;100307.12;4453787;32;34102;-79
2022/10/16 01:46:09;;;;;;;9.23;5.43;;;;;;;14.76;62.11;100302.78;4453549;32;34203;-77
2022/10/16 01:48:37;;;;;;;8.10;5.87;;;;;;;14.43;63.12;100312.06;4453619;32;34830;-77
2022/10/16 01:51:10;;;;;;;9.00;5.35;;;;;;;14.51;62.88;100308.84;4467877;32;33458;-80
2022/10/16 01:53:40;;;;;;;9.07;5.80;;;;;;;14.39;63.34;100305.47;4468414;32;33998;-77
2022/10/16 01:56:09;;;;;;;9.88;5.45;;;;;;;14.14;63.87;100302.25;4469108;32;33798;-76
2022/10/16 01:58:46;;;;;;;7.50;5.40;;;;;;;13.66;65.53;100305.84;4469266;32;34144;-80
2022/10/16 02:01:15;;;;;;;8.50;5.05;;;;;;;13.70;65.22;100301.53;4470607;32;34334;-78
2022/10/16 02:03:50;;;;;;;8.32;4.85;;;;;;;13.68;64.58;100304.53;4471791;31;34140;-76
2022/10/16 02:06:17;;;;;;;7.10;5.05;;;;;;;13.77;63.69;100309.53;4465566;32;34105;-76
2022/10/16 02:08:44;;;;;;;7.90;5.30;;;;;;;13.12;66.60;100309.25;4469629;32;34745;-78
2022/10/16 02:11:12;;;;;;;7.85;5.50;;;;;;;13.21;66.45;100315.91;4469734;32;34350;-77
2022/10/16 02:13:49;;;;;;;9.02;5.85;;;;;;;13.23;66.27;100321.09;4469817;32;34109;-77
2022/10/16 02:16:17;;;;;;;10.65;5.10;;;;;;;13.39;65.74;100325.72;4469695;32;34165;-76
2022/10/16 02:18:44;;;;;;;11.27;5.43;;;;;;;13.76;63.99;100333.25;4455428;32;34637;-77
2022/10/16 02:21:30;;;;;;;6.95;5.12;;;;;;;13.51;64.79;100328.31;4455231;32;34459;-78
2022/10/16 02:24:03;;;;;;;8.40;4.75;;;;;;;13.89;63.73;100332.03;4455428;32;34827;-78
2022/10/16 02:26:36;;;;;;;8.48;5.30;;;;;;;13.91;63.46;100327.16;4455140;32;34229;-77
2022/10/16 02:29:08;;;;;;;8.20;5.35;;;;;;;14.03;63.11;100326.97;4449082;32;34597;-77
2022/10/16 02:31:38;;;;;;;7.97;5.47;;;;;;;14.15;62.46;100328.47;4455586;32;33292;-76
2022/10/16 02:34:06;;;;;;;8.43;5.22;;;;;;;13.74;63.88;100329.94;4455769;32;34003;-80
2022/10/16 02:36:34;;;;;;;8.20;5.57;;;;;;;13.92;63.43;100329.59;4464543;32;34834;-80
2022/10/16 02:39:03;;;;;;;7.97;5.30;;;;;;;13.66;64.19;100327.66;4485508;32;34021;-79
2022/10/16 02:41:31;;;;;;;9.00;5.35;;;;;;;13.58;64.41;100342.56;4485393;32;34228;-78
2022/10/16 02:43:59;;;;;;;8.18;5.22;;;;;;;14.00;63.32;100339.22;4484920;32;34487;-77
2022/10/16 02:46:26;;;;;;;9.32;5.65;;;;;;;13.62;64.27;100346.44;4484984;32;34970;-76
2022/10/16 02:48:54;;;;;;;8.38;5.28;;;;;;;13.85;63.61;100345.34;4470685;32;34654;-78
2022/10/16 02:51:21;;;;;;;8.57;5.18;;;;;;;13.90;63.29;100348.13;4483831;32;34507;-78
2022/10/16 02:53:49;;;;;;;7.50;5.05;;;;;;;13.84;63.28;100343.69;4485246;32;34071;-79
2022/10/16 02:56:16;;;;;;;9.52;5.85;;;;;;;13.80;63.61;100337.12;4485084;32;34215;-77
2022/10/16 02:58:48;;;;;;;11.12;5.75;;;;;;;13.27;64.99;100342.16;4470728;32;33441;-81
2022/10/16 03:01:16;;;;;;;7.97;5.45;;;;;;;13.17;65.06;100349.34;4485219;32;34134;-79
2022/10/16 03:03:44;;;;;;;10.38;6.22;;;;;;;13.01;65.87;100345.59;4482937;32;33864;-77
2022/10/16 03:06:11;;;;;;;9.63;6.40;;;;;;;13.40;64.48;100351.06;4469328;32;35093;-81
2022/10/16 03:08:39;;;;;;;9.95;6.12;;;;;;;13.40;64.41;100346.44;4469083;32;34682;-76
2022/10/16 03:11:06;;;;;;;10.10;5.97;;;;;;;13.14;65.32;100347.97;4469400;32;33417;-77
2022/10/16 03:13:33;;;;;;;9.95;6.28;;;;;;;13.33;64.74;100354.81;4455214;32;33831;-78
2022/10/16 03:16:01;;;;;;;12.43;6.78;;;;;;;13.11;65.26;100348.47;4469056;32;33935;-77
2022/10/16 03:18:28;;;;;;;10.15;6.57;;;;;;;13.24;64.88;100350.00;4472545;32;34599;-77
2022/10/16 03:20:56;;;;;;;9.77;6.18;;;;;;;13.24;64.99;100360.88;4484859;32;33082;-76
2022/10/16 03:23:23;;;;;;;9.52;6.10;;;;;;;13.23;64.67;100361.97;4485131;32;34537;-77
2022/10/16 03:25:51;;;;;;;11.65;6.47;;;;;;;13.06;65.14;100370.19;4484647;32;35058;-76
2022/10/16 03:28:18;;;;;;;12.25;6.90;;;;;;;12.95;65.79;100365.66;4484977;32;34630;-76
2022/10/16 03:30:46;;;;;;;10.40;6.20;;;;;;;12.71;66.50;100374.00;4484849;32;33127;-76
2022/10/16 03:33:13;;;;;;;14.38;6.62;;;;;;;13.14;65.10;100370.56;4479259;32;33380;-77
2022/10/16 03:35:41;;;;;;;10.10;6.20;;;;;;;12.82;65.68;100370.38;4455260;32;33746;-80
2022/10/16 03:38:08;;;;;;;9.10;5.85;;;;;;;12.95;65.29;100371.94;4469058;32;34856;-76
2022/10/16 03:40:36;;;;;;;9.00;5.30;;;;;;;13.05;64.94;100384.88;4469100;32;33747;-78
2022/10/16 03:43:03;;;;;;;9.65;6.55;;;;;;;13.06;64.96;100379.16;4469320;32;33744;-77
2022/10/16 03:45:31;;;;;;;8.15;5.53;;;;;;;12.90;65.29;100380.84;4468707;32;35080;-79
2022/10/16 03:47:58;;;;;;;8.88;5.87;;;;;;;12.83;65.93;100387.53;4468607;32;33980;-77
2022/10/16 03:50:25;;;;;;;8.95;5.80;;;;;;;12.79;66.39;100379.03;4469168;32;34996;-76
2022/10/16 03:52:53;;;;;;;10.07;6.00;;;;;;;12.87;65.69;100385.97;4469138;32;33504;-77
2022/10/16 03:55:20;;;;;;;12.23;6.22;;;;;;;12.71;66.35;100387.62;4468832;32;34335;-77
2022/10/16 03:57:48;;;;;;;10.00;6.28;;;;;;;12.73;66.42;100385.47;4468728;32;33525;-76
2022/10/16 04:00:15;;;;;;;7.53;5.15;;;;;;;12.14;68.04;100379.53;4469522;32;34378;-77
2022/10/16 04:02:43;;;;;;;9.13;5.65;;;;;;;12.25;67.90;100376.78;4484495;32;34708;-77
2022/10/16 04:05:15;;;;;;;8.77;5.80;;;;;;;12.46;67.47;100394.28;4484752;32;34195;-77
2022/10/16 04:07:43;;;;;;;9.00;5.50;;;;;;;12.17;68.27;100390.75;4484976;32;34008;-76
2022/10/16 04:10:10;;;;;;;8.50;5.32;;;;;;;12.32;67.69;100393.75;4484130;32;34369;-78
2022/10/16 04:12:38;;;;;;;9.77;6.43;;;;;;;12.49;66.85;100403.84;4484734;32;33999;-78
2022/10/16 04:15:06;;;;;;;10.45;6.87;;;;;;;12.67;66.50;100408.25;4482691;32;34782;-78
2022/10/16 04:17:33;;;;;;;9.85;6.65;;;;;;;12.17;67.52;100401.66;4468988;32;33836;-77
2022/10/16 04:20:00;;;;;;;10.30;6.10;;;;;;;12.29;67.39;100407.03;4469083;32;33471;-80
2022/10/16 04:22:28;;;;;;;9.15;6.12;;;;;;;12.04;68.02;100397.31;4468388;32;33651;-79
2022/10/16 04:24:55;;;;;;;10.27;6.43;;;;;;;12.05;68.07;100389.97;4468801;32;34567;-76
2022/10/16 04:27:23;;;;;;;9.25;6.40;;;;;;;12.13;68.03;100397.75;4468609;32;34168;-73
2022/10/16 04:29:51;;;;;;;9.70;5.82;;;;;;;12.06;67.85;100400.63;4468358;32;33819;-76
2022/10/16 04:32:18;;;;;;;10.85;6.32;;;;;;;12.11;67.64;100398.00;4469422;32;33984;-77
2022/10/16 04:34:45;;;;;;;8.73;5.47;;;;;;;12.48;66.24;100396.75;4472656;32;34804;-77
2022/10/16 04:37:13;;;;;;;8.70;6.07;;;;;;;12.58;66.02;100396.13;4484302;32;34119;-77
2022/10/16 04:39:40;;;;;;;11.73;5.97;;;;;;;12.27;66.70;100401.03;4483807;32;33438;-78
2022/10/16 04:42:08;;;;;;;9.15;5.95;;;;;;;12.28;66.89;100397.22;4474961;32;33827;-76
2022/10/16 04:44:35;;;;;;;9.50;5.85;;;;;;;11.92;67.40;100399.25;4469757;32;34320;-76
2022/10/16 04:47:04;;;;;;;8.15;6.22;;;;;;;12.27;66.44;100404.56;4469406;32;34016;-75
2022/10/16 04:49:31;;;;;;;9.63;6.15;;;;;;;12.44;65.87;100407.31;4470016;32;33463;-76
2022/10/16 04:51:59;;;;;;;9.25;5.95;;;;;;;12.02;67.44;100409.50;4469374;32;34697;-76
2022/10/16 04:54:26;;;;;;;7.60;5.97;;;;;;;12.32;66.63;100412.00;4469040;32;33912;-74
2022/10/16 04:56:54;;;;;;;8.20;5.57;;;;;;;12.24;66.81;100415.91;4469327;32;33854;-75
2022/10/16 04:59:22;;;;;;;7.97;5.70;;;;;;;11.61;69.01;100414.91;4469612;32;33257;-76
2022/10/16 05:01:49;;;;;;;8.55;5.40;;;;;;;11.89;68.46;100410.63;4469404;32;34788;-74
2022/10/16 05:04:16;;;;;;;10.48;6.03;;;;;;;11.63;68.90;100415.50;4469446;32;35167;-75
2022/10/16 05:06:44;;;;;;;9.20;5.60;;;;;;;11.97;67.46;100412.16;4469541;32;33618;-75
2022/10/16 05:09:11;;;;;;;9.20;6.07;;;;;;;11.53;68.89;100404.41;4469519;32;33473;-77
2022/10/16 05:11:39;;;;;;;8.95;5.97;;;;;;;11.28;70.42;100418.25;4469694;32;34107;-75
2022/10/16 05:14:06;;;;;;;9.13;5.68;;;;;;;11.40;69.89;100418.25;4469597;32;34188;-76
2022/10/16 05:16:34;;;;;;;9.70;5.72;;;;;;;11.58;69.28;100422.72;4478686;32;34982;-74
2022/10/16 05:19:01;;;;;;;10.05;6.20;;;;;;;11.76;68.48;100428.00;4471955;32;33636;-74
2022/10/16 05:21:49;;;;;;;9.02;5.93;;;;;;;11.60;68.78;100418.69;4457342;32;34925;-74
2022/10/16 05:24:16;;;;;;;9.05;5.90;;;;;;;11.85;67.60;100423.81;4468958;32;34780;-71
2022/10/16 05:26:43;;;;;;;8.65;5.78;;;;;;;12.05;66.04;100430.78;4471749;32;33995;-74
2022/10/16 05:29:11;;;;;;;7.50;5.40;;;;;;;11.95;66.38;100431.41;4468575;32;33495;-75
2022/10/16 05:31:39;;;;;;;9.10;6.03;;;;;;;12.21;65.90;100434.63;4479970;32;33795;-70
2022/10/16 05:34:06;;;;;;;9.65;6.15;;;;;;;12.45;64.36;100432.63;4483888;32;35014;-79
2022/10/16 05:36:34;;;;;;;10.15;6.35;;;;;;;12.44;64.17;100431.81;4470307;32;34721;-77
2022/10/16 05:39:01;;;;;;;10.07;6.28;;;;;;;12.23;65.30;100433.31;4470809;32;34349;-77
2022/10/16 05:41:29;;;;;;;10.82;6.28;;;;;;;12.34;64.94;100445.22;4470505;32;34980;-77
2022/10/16 05:43:56;;;;;;;9.55;6.28;;;;;;;12.22;65.47;100445.25;4482067;32;34150;-77
2022/10/16 05:46:24;;;;;;;8.75;6.30;;;;;;;12.15;65.95;100435.59;4486498;32;33828;-78
2022/10/16 05:48:53;;;;;;;13.50;6.50;;;;;;;12.28;65.62;100446.19;4486421;32;34280;-77
2022/10/16 05:51:20;;;;;;;11.07;6.53;;;;;;;12.13;66.25;100446.72;4485381;32;34869;-75
2022/10/16 05:53:48;;;;;;;9.50;6.68;;;;;;;11.93;67.60;100444.44;4485823;32;35199;-76
2022/10/16 05:56:15;;;;;;;8.80;6.05;;;;;;;11.93;67.40;100451.75;4486362;32;34707;-75
2022/10/16 05:58:44;;;;;;;10.30;6.90;;;;;;;11.86;67.49;100455.41;4485972;32;34167;-76
2022/10/16 06:01:14;;;;;;;10.05;6.35;;;;;;;11.68;68.56;100460.97;4486722;32;33905;-76
2022/10/16 06:03:42;;;;;;;9.15;6.35;;;;;;;12.29;66.50;100456.03;4472228;32;35187;-76
2022/10/16 06:06:10;;;;;;;10.10;6.32;;;;;;;12.20;66.99;100454.72;4485798;32;33732;-76
2022/10/16 06:08:39;;;;;;;10.98;7.32;;;;;;;11.85;68.54;100463.78;4472285;32;34419;-76
2022/10/16 06:11:09;;;;;;;9.55;6.28;;;;;;;11.80;69.14;100467.22;4486009;32;34821;-77
2022/10/16 06:13:37;;;;;;;10.00;6.37;;;;;;;12.55;68.27;100478.25;4486443;32;34262;-77
2022/10/16 06:16:05;;;;;;;9.65;6.18;;;;;;;12.72;68.18;100479.09;4486322;32;33713;-77
2022/10/16 06:18:32;;;;;;;8.60;5.62;;;;;;;13.26;66.58;100484.94;4485947;32;34260;-79
2022/10/16 06:21:00;;;;;;;7.87;5.37;;;;;;;14.02;63.86;100486.31;4484453;32;34851;-78
2022/10/16 06:23:28;;;;;;;9.07;5.75;;;;;;;14.39;62.83;100486.47;4471980;32;34994;-77
2022/10/16 06:26:04;;;;;;;8.48;5.82;;;;;;;14.87;59.94;100487.53;4480402;32;34561;-74
2022/10/16 06:28:32;;;;;;;9.13;5.82;;;;;;;15.51;57.83;100497.63;4479464;32;33281;-73
2022/10/16 06:31:01;;;;;;;7.18;5.07;;;;;;;15.12;59.56;100500.59;4468976;32;34683;-76
2022/10/16 06:33:35;;;;;;;9.13;5.30;;;;;;;15.74;58.14;100512.84;4469334;32;35073;-73
2022/10/16 06:36:08;;;;;;;8.35;5.22;;;;;;;16.16;55.50;100505.66;4468631;32;33469;-75
2022/10/16 06:38:35;;;;;;;9.80;5.25;;;;;;;16.07;55.35;100505.34;4454817;32;34280;-72
2022/10/16 06:41:04;;;;;;;8.15;5.55;;;;;;;17.01;52.42;100506.16;4469052;32;33953;-73
2022/10/16 06:43:32;;;;;;;7.43;5.30;;;;;;;15.65;55.28;100503.44;4468761;32;34176;-72
2022/10/16 06:46:00;;;;;;;9.00;5.30;;;;;;;15.84;54.60;100503.03;4468476;32;34761;-72
2022/10/16 06:48:28;;;;;;;7.18;5.10;;;;;;;16.06;53.28;100513.81;4468776;32;33411;-74
2022/10/16 06:50:59;;;;;;;8.40;5.18;;;;;;;16.05;52.29;100520.41;4454932;32;33825;-74
2022/10/16 06:53:29;;;;;;;7.82;5.50;;;;;;;16.27;52.41;100528.44;4454912;32;34920;-75
2022/10/16 06:56:16;;;;;;;8.40;5.35;;;;;;;16.38;52.20;100530.94;4462735;32;34799;-73
2022/10/16 06:58:43;;;;;;;10.80;5.60;;;;;;;16.20;54.65;100540.44;4468524;32;33658;-72
2022/10/16 07:01:12;;;;;;;11.23;5.60;;;;;;;16.47;52.36;100533.97;4468758;32;34058;-74
2022/10/16 07:03:41;;;;;;;8.95;5.53;;;;;;;16.46;52.67;100539.72;4454688;32;33965;-75
2022/10/16 07:06:12;;;;;;;7.90;5.50;;;;;;;16.35;52.97;100534.22;4469703;32;33790;-73
2022/10/16 07:08:41;;;;;;;8.40;5.05;;;;;;;16.17;54.48;100540.16;4485586;32;33160;-73
2022/10/16 07:11:11;;;;;;;9.45;5.53;;;;;;;16.45;52.82;100541.63;4485718;32;33771;-74
2022/10/16 07:13:40;;;;;;;8.27;5.53;;;;;;;15.88;52.64;100548.75;4471606;32;34230;-72
2022/10/16 07:16:09;;;;;;;7.68;5.50;;;;;;;16.46;51.82;100554.25;4485727;32;34558;-75
2022/10/16 07:18:38;;;;;;;9.70;5.87;;;;;;;16.54;52.92;100555.63;4485458;32;33212;-73
2022/10/16 07:21:07;;;;;;;9.00;5.68;;;;;;;16.91;51.38;100549.19;4471286;32;34869;-73
2022/10/16 07:23:34;;;;;;;8.88;5.85;;;;;;;17.21;50.48;100562.09;4472012;32;34296;-73
2022/10/16 07:26:03;;;;;;;7.90;5.43;;;;;;;17.60;49.70;100561.56;4484991;32;33953;-74
2022/10/16 07:28:31;;;;;;;13.07;7.47;;;;;;;18.15;48.65;100561.78;4485990;32;33606;-75
2022/10/16 07:31:07;;;;;;;24.08;11.63;;;;;;;17.76;48.65;100565.13;4485988;32;34838;-74
2022/10/16 07:33:35;;;;;;;12.25;7.10;;;;;;;17.68;48.26;100557.44;4471986;32;34119;-76
2022/10/16 07:36:02;;;;;;;27.30;15.48;;;;;;;17.66;49.13;100551.41;4486022;32;33819;-75
2022/10/16 07:38:31;;;;;;;16.30;10.35;;;;;;;17.67;49.27;100553.88;4483194;32;33624;-74
2022/10/16 07:41:00;;;;;;;9.02;5.47;;;;;;;17.72;48.57;100553.88;4485561;32;34682;-77
2022/10/16 07:43:28;;;;;;;11.20;6.68;;;;;;;17.51;48.99;100555.81;4485739;32;34888;-74
2022/10/16 07:45:56;;;;;;;9.27;5.50;;;;;;;16.76;51.04;100560.91;4485354;32;34797;-74
2022/10/16 07:48:28;;;;;;;8.85;5.80;;;;;;;16.85;50.35;100569.47;4485551;32;33449;-74
2022/10/16 07:51:04;;;;;;;10.10;5.75;;;;;;;16.84;51.25;100573.28;4485370;32;33884;-73
2022/10/16 07:53:32;;;;;;;8.70;5.62;;;;;;;16.86;51.83;100577.41;4485125;32;34068;-74
2022/10/16 07:56:05;;;;;;;10.43;5.65;;;;;;;17.27;50.30;100576.66;4485790;32;34094;-74
2022/10/16 07:58:34;;;;;;;8.23;5.70;;;;;;;17.54;49.91;100577.22;4484453;32;34389;-74
2022/10/16 08:01:05;;;;;;;9.02;5.43;;;;;;;18.01;47.92;100581.59;4485304;32;33784;-75
2022/10/16 08:03:33;;;;;;;8.73;5.90;;;;;;;18.03;49.99;100589.53;4471222;32;34987;-74
2022/10/16 08:06:00;;;;;;;7.40;5.50;;;;;;;18.09;48.47;100593.91;4471444;32;34011;-74
2022/10/16 08:08:28;;;;;;;9.20;5.85;;;;;;;17.80;48.48;100597.22;4485012;32;34240;-74
2022/10/16 08:10:56;;;;;;;8.18;5.53;;;;;;;17.21;50.09;100597.75;4471458;32;34078;-74
2022/10/16 08:13:23;;;;;;;9.55;5.60;;;;;;;17.17;50.48;100604.88;4471220;32;34974;-75
2022/10/16 08:15:51;;;;;;;8.55;5.80;;;;;;;17.67;50.59;100608.78;4485366;32;34043;-77
2022/10/16 08:18:18;;;;;;;8.75;5.65;;;;;;;17.63;49.51;100610.41;4485218;32;34234;-74
2022/10/16 08:20:46;;;;;;;10.02;6.00;;;;;;;17.63;49.24;100607.66;4484948;32;33733;-74
2022/10/16 08:23:13;;;;;;;7.82;5.40;;;;;;;17.50;49.81;100609.03;4485166;32;33949;-74
2022/10/16 08:25:41;;;;;;;8.88;5.37;;;;;;;17.34;50.41;100612.84;4471443;32;34742;-74
2022/10/16 08:28:10;;;;;;;8.60;5.28;;;;;;;17.24;50.23;100618.34;4484963;32;34285;-75
2022/10/16 08:30:37;;;;;;;8.50;5.80;;;;;;;17.58;48.36;100619.47;4485171;32;33996;-75
2022/10/16 08:33:06;;;;;;;9.55;5.35;;;;;;;16.58;52.45;100619.75;4485324;32;33367;-76
2022/10/16 08:35:33;;;;;;;7.57;5.30;;;;;;;17.07;51.50;100618.59;4485221;32;34203;-74
2022/10/16 08:38:03;;;;;;;10.23;5.72;;;;;;;17.56;51.47;100618.94;4484560;32;33530;-74
2022/10/16 08:40:33;;;;;;;8.65;5.87;;;;;;;17.61;50.53;100616.16;4482456;32;81257;-74
2022/10/16 08:43:19;;;;;;;8.27;5.37;;;;;;;16.99;50.54;100625.41;4471240;32;35160;-74
2022/10/16 08:46:19;;;;;;;8.30;5.68;;;;;;;18.16;48.12;100627.41;4485140;32;33810;-75
2022/10/16 08:48:51;;;;;;;7.45;4.57;;;;;;;18.49;48.44;100633.37;4415364;32;33452;-75
2022/10/16 08:51:32;;;;;;;9.88;5.37;;;;;;;18.57;48.13;100626.44;4484760;32;34053;-74
2022/10/16 08:54:06;;;;;;;8.45;5.28;;;;;;;17.87;48.90;100632.66;4470554;32;34148;-75
2022/10/16 08:56:33;;;;;;;9.18;5.93;;;;;;;18.50;47.77;100635.00;4471167;32;33880;-75
2022/10/16 08:59:01;;;;;;;8.70;5.40;;;;;;;18.69;47.42;100629.72;4484855;32;34351;-77
2022/10/16 09:01:38;;;;;;;9.10;6.03;;;;;;;19.59;45.37;100636.06;4485213;32;33616;-76
2022/10/16 09:04:18;;;;;;;7.25;5.22;;;;;;;19.43;45.76;100636.19;4484826;32;34270;-74
2022/10/16 09:06:48;;;;;;;8.70;5.05;;;;;;;19.98;43.50;100632.47;4485062;32;34544;-76
2022/10/16 09:09:31;;;;;;;7.50;5.50;;;;;;;19.60;43.57;100637.72;4469766;32;34409;-74
2022/10/16 09:12:20;;;;;;;7.62;5.35;;;;;;;19.10;46.01;100646.03;4480918;32;34773;-74
2022/10/16 09:15:12;;;;;;;6.90;5.12;;;;;;;19.21;46.94;100644.84;4470897;32;33856;-75
2022/10/16 09:17:58;;;;;;;7.28;4.85;;;;;;;19.44;45.50;100648.03;4470681;32;33741;-75
2022/10/16 09:20:41;;;;;;;8.43;5.62;;;;;;;18.87;46.61;100652.19;4470409;32;33432;-74
2022/10/16 09:23:14;;;;;;;9.40;5.28;;;;;;;19.21;46.64;100650.37;4484317;32;34024;-75
2022/10/16 09:25:47;;;;;;;9.83;5.47;;;;;;;19.26;47.57;100641.25;4479706;32;34292;-75
2022/10/16 09:28:16;;;;;;;8.50;5.60;;;;;;;19.32;45.34;100645.62;4484532;32;34058;-75
2022/10/16 09:30:45;;;;;;;9.30;5.30;;;;;;;18.91;47.03;100642.28;4470573;32;33668;-73
2022/10/16 09:33:13;;;;;;;8.43;5.40;;;;;;;19.05;47.43;100646.87;4470232;32;33580;-73
2022/10/16 09:35:44;;;;;;;7.82;5.43;;;;;;;19.37;47.27;100644.75;4470417;32;34208;-73
2022/10/16 09:38:32;;;;;;;9.93;5.82;;;;;;;19.73;47.19;100641.78;4469658;32;34038;-79
2022/10/16 09:41:02;;;;;;;8.00;5.43;;;;;;;18.88;46.67;100642.84;4484421;32;33635;-80
2022/10/16 09:44:01;;;;;;;8.95;5.95;;;;;;;19.15;47.53;100642.44;4470189;32;34179;-77
2022/10/16 09:46:31;;;;;;;8.20;5.55;;;;;;;19.56;46.87;100648.47;4484408;32;35095;-73
2022/10/16 09:49:01;;;;;;;10.10;5.78;;;;;;;19.01;47.02;100647.75;4470186;32;34642;-76
2022/10/16 09:51:36;;;;;;;8.57;5.60;;;;;;;19.11;48.32;100650.41;4483875;32;34010;-80
2022/10/16 09:54:19;;;;;;;9.13;5.35;;;;;;;19.03;47.05;100651.84;4483686;32;34769;-76
2022/10/16 09:56:51;;;;;;;8.60;5.72;;;;;;;19.18;46.13;100661.94;4482196;32;34164;-72
2022/10/16 09:59:23;;;;;;;7.72;5.62;;;;;;;19.70;45.77;100665.19;4483660;32;34165;-73
2022/10/16 10:01:55;;;;;;;7.15;5.12;;;;;;;19.18;46.37;100661.94;4484011;32;34287;-76
2022/10/16 10:04:23;;;;;;;8.20;5.43;;;;;;;19.84;46.15;100657.91;4484112;31;34036;-78
2022/10/16 10:06:52;;;;;;;8.55;5.70;;;;;;;20.06;45.55;100656.63;4469910;32;34278;-77
2022/10/16 10:09:28;;;;;;;10.88;6.20;;;;;;;19.11;47.48;100661.41;4483814;32;34357;-77
2022/10/16 10:12:00;;;;;;;7.20;5.03;;;;;;;20.14;44.41;100653.22;4469915;32;33174;-78
2022/10/16 10:14:52;;;;;;;7.93;5.68;;;;;;;20.26;44.52;100650.91;4470409;32;33977;-78
2022/10/16 10:17:22;;;;;;;8.15;5.18;;;;;;;19.67;45.65;100643.69;4469870;32;34672;-78
2022/10/16 10:20:01;;;;;;;8.23;5.45;;;;;;;20.20;44.90;100641.06;4483268;32;35090;-77
2022/10/16 10:22:45;;;;;;;7.05;4.70;;;;;;;20.45;44.85;100634.44;4470903;32;33716;-77
2022/10/16 10:25:12;;;;;;;11.35;5.32;;;;;;;20.83;44.07;100642.00;4472229;32;34681;-77
2022/10/16 10:27:46;;;;;;;10.27;5.30;;;;;;;20.69;42.78;100636.38;4486254;32;34909;-78
2022/10/16 10:30:37;;;;;;;8.70;5.60;;;;;;;20.34;44.44;100637.59;4485613;32;34689;-78
2022/10/16 10:33:13;;;;;;;7.35;5.12;;;;;;;19.50;45.75;100641.34;4465361;32;33603;-77
2022/10/16 10:35:58;;;;;;;8.02;4.45;;;;;;;19.68;46.23;100626.91;4470822;32;33104;-75
2022/10/16 10:38:34;;;;;;;7.53;5.12;;;;;;;20.11;46.13;100633.69;4468626;32;34063;-76
2022/10/16 10:41:33;;;;;;;7.30;4.68;;;;;;;19.40;46.65;100625.75;4467897;32;34263;-75
2022/10/16 10:44:25;;;;;;;6.50;4.68;;;;;;;20.19;44.51;100633.87;4455041;32;33380;-74
2022/10/16 10:47:01;;;;;;;8.65;4.68;;;;;;;20.11;45.17;100630.94;4469022;32;34905;-76
2022/10/16 10:49:51;;;;;;;7.75;4.97;;;;;;;19.91;45.08;100631.97;4468927;32;34191;-75
2022/10/16 10:52:46;;;;;;;9.05;4.85;;;;;;;20.08;44.82;100635.09;4467920;32;34813;-77
2022/10/16 10:55:45;;;;;;;8.20;4.62;;;;;;;20.57;43.90;100633.22;4469298;32;33215;-76
2022/10/16 10:58:25;;;;;;;6.87;4.43;;;;;;;20.77;43.61;100629.41;4469030;32;33976;-75
2022/10/16 11:01:11;;;;;;;7.75;4.87;;;;;;;20.53;43.85;100630.22;4468587;32;34705;-77
2022/10/16 11:03:57;;;;;;;6.45;4.85;;;;;;;19.81;45.28;100636.47;4469033;32;34639;-77
2022/10/16 11:06:45;;;;;;;51.63;46.70;;;;;;;19.76;46.04;100633.78;4468243;32;34013;-76
2022/10/16 11:09:20;;;;;;;6.45;5.10;;;;;;;20.40;44.96;100625.41;4468633;32;33668;-75
2022/10/16 11:11:54;;;;;;;8.38;4.45;;;;;;;20.54;45.53;100626.34;4468991;32;35051;-76
2022/10/16 11:14:31;;;;;;;5.53;4.45;;;;;;;20.58;44.23;100629.34;4454621;32;34938;-78
2022/10/16 11:17:04;;;;;;;5.93;4.37;;;;;;;20.88;43.05;100626.22;4469270;32;34318;-77
2022/10/16 11:19:40;;;;;;;6.90;4.22;;;;;;;21.25;42.23;100621.84;4465631;32;34948;-76
2022/10/16 11:22:46;;;;;;;7.37;4.57;;;;;;;21.56;41.75;100615.03;4467532;32;35001;-77
2022/10/16 11:25:21;;;;;;;6.05;4.00;;;;;;;21.82;41.94;100616.25;4455180;32;33966;-75
2022/10/16 11:28:09;;;;;;;5.75;3.67;;;;;;;21.83;40.65;100619.81;4454806;32;34265;-76
2022/10/16 11:30:45;;;;;;;4.85;3.58;;;;;;;21.79;40.55;100611.34;4468933;32;34070;-75
2022/10/16 11:33:40;;;;;;;5.57;3.40;;;;;;;21.20;41.22;100612.81;4467518;32;34847;-81
2022/10/16 11:36:19;;;;;;;4.57;3.43;;;;;;;22.24;40.46;100619.91;4465745;32;34636;-75
2022/10/16 11:38:51;;;;;;;5.40;3.55;;;;;;;22.53;39.68;100611.34;4468584;32;33193;-75
2022/10/16 11:41:26;;;;;;;6.90;3.58;;;;;;;22.83;39.83;100614.59;4468649;32;33798;-77
2022/10/16 11:44:31;;;;;;;6.72;3.67;;;;;;;22.84;39.58;100620.94;4454627;32;34214;-75
2022/10/16 11:47:13;;;;;;;4.55;3.03;;;;;;;22.34;39.35;100616.16;4459568;32;33661;-70